Time;durP1;ratioP1;P1;durP2;ratioP2;P2;SDS_P1;SDS_P2;PMS_P1;PMS_P2;Temp;Humidity;BMP_temperature;BMP_pressure;BME280_temperature;BME280_humidity;BME280_pressure;Samples;Min_cycle;Max_cycle;Signal;HPM_P1;HPM_P2
2023/11/13 00:02:07;;;;;;;12.93;5.90;;;;;;;17.10;68.69;98801.47;5093393;28;20035;-47
2023/11/13 00:04:33;;;;;;;36.40;32.92;;;;;;;16.47;70.99;98804.03;5091836;28;20024;-46
2023/11/13 00:06:59;;;;;;;17.90;9.38;;;;;;;16.08;75.93;98806.44;5093017;28;20023;-46
2023/11/13 00:09:25;;;;;;;12.43;5.22;;;;;;;15.62;77.13;98800.13;5092896;28;20107;-46
2023/11/13 00:11:51;;;;;;;13.80;6.15;;;;;;;15.13;80.49;98804.78;5092858;28;20178;-47
2023/11/13 00:14:16;;;;;;;13.18;11.02;;;;;;;14.75;84.25;98805.97;5090831;28;20028;-46
2023/11/13 00:16:42;;;;;;;12.63;5.40;;;;;;;14.78;89.30;98806.28;5092689;28;20035;-46
2023/11/13 00:19:08;;;;;;;22.75;7.60;;;;;;;14.64;91.50;98807.50;5091534;28;20036;-46
2023/11/13 00:21:34;;;;;;;15.70;5.55;;;;;;;14.68;94.51;98800.75;5092767;28;20390;-45
2023/11/13 00:23:59;;;;;;;11.50;5.07;;;;;;;14.67;96.59;98801.78;5092423;28;20044;-45
2023/11/13 00:26:25;;;;;;;23.45;18.63;;;;;;;14.65;97.61;98795.09;5092665;28;20375;-45
2023/11/13 00:28:52;;;;;;;26.02;23.40;;;;;;;14.44;97.80;98781.31;5091302;28;20028;-45
2023/11/13 00:31:21;;;;;;;18.00;6.57;;;;;;;14.31;99.96;98776.22;5091114;28;20074;-45
2023/11/13 00:33:48;;;;;;;26.45;14.73;;;;;;;14.31;100.00;98769.09;5092518;28;20102;-45
2023/11/13 00:36:14;;;;;;;15.95;13.20;;;;;;;14.09;100.00;98763.47;5091327;28;20016;-45
2023/11/13 00:38:40;;;;;;;15.45;6.15;;;;;;;14.13;100.00;98769.13;5092482;28;20039;-45
2023/11/13 00:41:13;;;;;;;32.42;29.17;;;;;;;14.17;100.00;98767.66;5092362;28;20486;-45
2023/11/13 00:43:39;;;;;;;38.60;34.85;;;;;;;14.34;100.00;98767.84;5091046;28;20020;-45
2023/11/13 00:46:08;;;;;;;14.13;7.80;;;;;;;14.36;100.00;98768.44;5092854;28;20363;-45
2023/11/13 00:48:37;;;;;;;12.30;6.28;;;;;;;14.10;100.00;98761.63;5092249;28;20512;-45
2023/11/13 00:51:04;;;;;;;23.35;8.00;;;;;;;14.06;100.00;98771.03;5092114;28;20560;-45
2023/11/13 00:53:36;;;;;;;53.10;48.05;;;;;;;13.99;100.00;98771.13;5092429;28;20048;-45
2023/11/13 00:56:06;;;;;;;15.88;8.15;;;;;;;13.74;100.00;98755.34;5092747;28;20421;-45
2023/11/13 00:58:36;;;;;;;13.13;3.13;;;;;;;13.46;100.00;98767.19;5092211;28;20115;-45
2023/11/13 01:01:06;;;;;;;11.15;5.10;;;;;;;13.38;100.00;98770.06;5092172;28;20020;-45
2023/11/13 01:03:32;;;;;;;13.20;6.07;;;;;;;13.35;100.00;98771.31;5092085;28;20027;-45
2023/11/13 01:05:59;;;;;;;43.80;39.35;;;;;;;13.49;100.00;98766.75;5090764;28;20016;-45
2023/11/13 01:08:25;;;;;;;12.65;3.70;;;;;;;13.63;100.00;98762.16;5092447;28;20111;-45
2023/11/13 01:10:50;;;;;;;14.90;7.68;;;;;;;13.56;100.00;98759.59;5090688;28;20027;-45
2023/11/13 01:13:16;;;;;;;26.70;21.75;;;;;;;13.29;100.00;98761.63;5091985;28;20032;-45
2023/11/13 01:15:43;;;;;;;25.65;17.00;;;;;;;13.21;100.00;98769.00;5091901;28;20460;-45
2023/11/13 01:18:09;;;;;;;15.77;7.80;;;;;;;13.15;100.00;98765.38;5091969;28;20028;-45
2023/11/13 01:20:34;;;;;;;19.63;10.02;;;;;;;13.45;100.00;98764.75;5091876;28;20417;-44
2023/11/13 01:23:00;;;;;;;30.25;27.20;;;;;;;13.53;100.00;98759.22;5090622;28;20028;-44
2023/11/13 01:25:26;;;;;;;19.60;9.45;;;;;;;13.71;100.00;98753.94;5086224;28;20661;-44
2023/11/13 01:27:52;;;;;;;19.60;9.10;;;;;;;13.82;100.00;98739.22;5096146;28;20047;-44
2023/11/13 01:30:17;;;;;;;19.02;16.05;;;;;;;13.96;100.00;98724.03;5094621;28;20671;-44
2023/11/13 01:32:44;;;;;;;9.85;3.97;;;;;;;14.03;100.00;98723.97;5096019;28;20065;-44
2023/11/13 01:35:09;;;;;;;10.45;3.42;;;;;;;13.66;100.00;98719.53;5095960;28;20504;-44
2023/11/13 01:37:35;;;;;;;62.88;56.25;;;;;;;13.61;100.00;98723.84;5095909;28;20028;-44
2023/11/13 01:40:03;;;;;;;13.40;7.13;;;;;;;13.87;100.00;98730.66;5095858;28;20492;-45
2023/11/13 01:42:29;;;;;;;15.00;9.43;;;;;;;13.65;100.00;98746.13;5095788;28;20091;-44
2023/11/13 01:44:55;;;;;;;23.58;15.23;;;;;;;13.43;100.00;98735.16;5095789;28;20031;-45
2023/11/13 01:47:22;;;;;;;11.32;3.42;;;;;;;13.27;100.00;98744.41;5095778;28;20100;-45
2023/11/13 01:49:48;;;;;;;15.20;3.65;;;;;;;13.25;100.00;98735.91;5094639;28;20028;-45
2023/11/13 01:52:14;;;;;;;12.95;5.28;;;;;;;13.46;100.00;98737.34;5095855;28;20436;-44
2023/11/13 01:54:41;;;;;;;19.75;16.38;;;;;;;13.98;100.00;98745.75;5094339;28;20020;-44
2023/11/13 01:57:08;;;;;;;12.85;8.60;;;;;;;14.26;100.00;98742.56;5095776;28;20473;-44
2023/11/13 01:59:38;;;;;;;10.30;4.82;;;;;;;14.49;100.00;98733.13;5094269;28;20024;-44
2023/11/13 02:02:04;;;;;;;10.70;4.32;;;;;;;14.52;100.00;98737.97;5095667;28;20020;-44
2023/11/13 02:04:30;;;;;;;75.70;68.60;;;;;;;14.55;100.00;98756.81;5095384;28;20503;-44
2023/11/13 02:06:57;;;;;;;156.63;144.05;;;;;;;14.41;100.00;98763.28;5094010;28;20031;-45
2023/11/13 02:09:23;;;;;;;208.20;189.75;;;;;;;14.47;100.00;98761.59;5094020;28;20042;-45
2023/11/13 02:11:49;;;;;;;37.58;33.90;;;;;;;14.62;100.00;98767.31;5095170;28;20020;-45
2023/11/13 02:14:15;;;;;;;53.22;48.35;;;;;;;14.52;100.00;98759.88;5095224;28;20024;-45
2023/11/13 02:16:41;;;;;;;229.63;207.38;;;;;;;14.46;100.00;98755.50;5095169;28;20406;-44
2023/11/13 02:19:09;;;;;;;129.40;117.13;;;;;;;14.19;100.00;98760.31;5095087;28;20030;-45
2023/11/13 02:21:35;;;;;;;21.30;15.95;;;;;;;13.70;100.00;98762.91;5095025;28;20028;-44
2023/11/13 02:24:04;;;;;;;509.65;461.10;;;;;;;13.72;100.00;98758.22;5094738;28;20114;-45
2023/11/13 02:26:29;;;;;;;10.68;4.38;;;;;;;13.62;100.00;98749.97;5095172;28;20085;-44
2023/11/13 02:28:55;;;;;;;63.33;56.58;;;;;;;13.18;100.00;98743.88;5094948;28;20024;-44
2023/11/13 02:31:21;;;;;;;11.13;3.97;;;;;;;12.97;100.00;98730.03;5094699;28;20050;-44
2023/11/13 02:33:46;;;;;;;11.50;4.38;;;;;;;12.68;100.00;98738.56;5094842;28;20107;-44
2023/11/13 02:36:12;;;;;;;135.75;121.55;;;;;;;12.55;100.00;98739.44;5093713;28;20478;-44
2023/11/13 02:38:38;;;;;;;11.10;3.38;;;;;;;12.59;100.00;98733.53;5093634;28;20481;-44
2023/11/13 02:41:03;;;;;;;11.00;4.43;;;;;;;12.53;100.00;98729.13;5094715;28;20031;-44
2023/11/13 02:43:29;;;;;;;32.72;29.45;;;;;;;12.64;100.00;98732.13;5094670;28;20030;-45
2023/11/13 02:45:55;;;;;;;27.63;23.15;;;;;;;12.99;100.00;98735.91;5094585;28;20602;-45
2023/11/13 02:48:21;;;;;;;16.05;11.35;;;;;;;13.65;100.00;98738.19;5093245;28;20028;-45
2023/11/13 02:50:47;;;;;;;35.05;31.65;;;;;;;13.85;100.00;98743.25;5094458;28;20437;-45
2023/11/13 02:53:13;;;;;;;63.47;58.33;;;;;;;14.18;100.00;98745.50;5093230;28;20402;-45
2023/11/13 02:55:39;;;;;;;17.40;10.98;;;;;;;14.36;100.00;98742.81;5094390;28;20028;-45
2023/11/13 02:58:05;;;;;;;12.80;5.80;;;;;;;14.56;100.00;98734.66;5093090;28;20020;-46
2023/11/13 03:00:33;;;;;;;14.48;8.30;;;;;;;14.77;100.00;98743.13;5093012;28;20074;-45
2023/11/13 03:02:59;;;;;;;7.18;3.40;;;;;;;14.65;100.00;98750.19;5094276;28;20513;-46
2023/11/13 03:05:25;;;;;;;9.40;4.65;;;;;;;14.39;100.00;98749.50;5094214;28;20391;-45
2023/11/13 03:07:51;;;;;;;15.02;6.57;;;;;;;14.20;100.00;98743.44;5076047;28;20035;-45
2023/11/13 03:10:16;;;;;;;19.02;10.07;;;;;;;14.09;100.00;98749.47;5092758;28;20117;-45
2023/11/13 03:12:42;;;;;;;20.05;5.20;;;;;;;14.16;100.00;98761.56;5094112;28;20028;-45
2023/11/13 03:15:11;;;;;;;34.35;6.90;;;;;;;14.27;100.00;98773.22;5094051;28;20822;-46
2023/11/13 03:17:37;;;;;;;15.80;14.27;;;;;;;14.37;100.00;98777.97;5092761;28;20098;-46
2023/11/13 03:20:04;;;;;;;17.70;5.18;;;;;;;14.00;100.00;98783.25;5093911;28;20036;-45
2023/11/13 03:22:29;;;;;;;8.07;5.07;;;;;;;13.80;100.00;98788.75;5093850;28;20027;-45
2023/11/13 03:24:55;;;;;;;14.48;5.65;;;;;;;13.86;100.00;98797.63;5093671;28;20066;-45
2023/11/13 03:27:21;;;;;;;14.00;6.50;;;;;;;13.77;100.00;98799.75;5092611;28;20078;-44
2023/11/13 03:29:47;;;;;;;13.52;9.68;;;;;;;13.60;100.00;98786.31;5093605;28;20123;-44
2023/11/13 03:32:12;;;;;;;19.50;7.70;;;;;;;13.72;100.00;98766.13;5093712;28;20095;-44
2023/11/13 03:34:38;;;;;;;70.72;64.63;;;;;;;13.54;100.00;98752.91;5093647;28;20482;-44
2023/11/13 03:37:04;;;;;;;156.05;142.88;;;;;;;13.78;100.00;98736.22;5093534;28;20107;-45
2023/11/13 03:39:30;;;;;;;24.90;22.30;;;;;;;14.01;100.00;98744.50;5092293;28;20112;-45
2023/11/13 03:41:55;;;;;;;23.20;20.85;;;;;;;14.14;100.00;98742.50;5093509;28;20035;-45
2023/11/13 03:44:21;;;;;;;34.85;31.27;;;;;;;14.01;100.00;98749.78;5093459;28;20023;-45
2023/11/13 03:46:48;;;;;;;23.02;20.58;;;;;;;13.78;100.00;98757.34;5093635;28;20031;-45
2023/11/13 03:49:13;;;;;;;12.55;7.47;;;;;;;13.57;100.00;98747.19;5093058;28;20024;-44
2023/11/13 03:51:39;;;;;;;18.73;8.73;;;;;;;13.46;100.00;98745.25;5092021;28;20035;-45
2023/11/13 03:54:05;;;;;;;9.07;4.85;;;;;;;13.65;100.00;98757.47;5093350;28;20111;-44
2023/11/13 03:56:31;;;;;;;24.13;21.95;;;;;;;13.62;100.00;98763.16;5091937;28;20059;-44
2023/11/13 03:58:56;;;;;;;15.23;11.05;;;;;;;13.65;100.00;98760.09;5093245;28;20047;-44
2023/11/13 04:01:22;;;;;;;8.90;6.43;;;;;;;13.41;100.00;98753.84;5091824;28;20119;-44
2023/11/13 04:03:48;;;;;;;9.15;6.47;;;;;;;13.72;100.00;98746.84;5091776;28;20524;-44
2023/11/13 04:06:14;;;;;;;11.80;6.78;;;;;;;13.82;100.00;98735.78;5093030;28;20020;-44
2023/11/13 04:08:40;;;;;;;10.57;5.63;;;;;;;13.49;100.00;98755.38;5092986;28;20103;-44
2023/11/13 04:11:06;;;;;;;9.07;6.07;;;;;;;13.27;100.00;98768.91;5092733;28;20027;-44
2023/11/13 04:13:34;;;;;;;8.93;5.07;;;;;;;13.21;100.00;98767.16;5091627;28;20024;-44
2023/11/13 04:16:00;;;;;;;11.25;8.77;;;;;;;13.11;100.00;98769.47;5092866;28;20513;-44
2023/11/13 04:18:35;;;;;;;14.15;12.52;;;;;;;13.02;100.00;98762.84;5093105;28;20390;-44
2023/11/13 04:21:01;;;;;;;12.63;7.35;;;;;;;13.42;100.00;98757.28;5091527;28;20040;-44
2023/11/13 04:23:26;;;;;;;10.63;5.60;;;;;;;13.88;100.00;98769.19;5091423;28;20409;-44
2023/11/13 04:25:52;;;;;;;11.70;7.00;;;;;;;13.99;100.00;98771.13;5092490;28;20117;-44
2023/11/13 04:28:22;;;;;;;13.82;6.78;;;;;;;13.97;100.00;98781.06;5091338;28;20119;-44
2023/11/13 04:30:47;;;;;;;5.38;3.95;;;;;;;14.33;100.00;98787.38;5092537;28;20031;-44
2023/11/13 04:33:13;;;;;;;17.17;15.45;;;;;;;14.62;100.00;98785.00;5092612;28;20020;-44
2023/11/13 04:35:39;;;;;;;12.18;10.77;;;;;;;15.03;100.00;98796.59;5092499;28;20093;-44
2023/11/13 04:38:06;;;;;;;10.00;8.02;;;;;;;15.42;100.00;98797.03;5092512;28;20020;-45
2023/11/13 04:40:31;;;;;;;8.20;5.50;;;;;;;15.70;100.00;98801.63;5092702;28;20047;-44
2023/11/13 04:42:59;;;;;;;11.00;9.40;;;;;;;15.82;100.00;98802.47;5091108;28;20485;-44
2023/11/13 04:45:25;;;;;;;25.55;20.55;;;;;;;15.86;100.00;98806.25;5092607;28;20102;-45
2023/11/13 04:47:51;;;;;;;19.60;17.13;;;;;;;15.85;100.00;98811.75;5091142;28;20020;-45
2023/11/13 04:50:18;;;;;;;8.10;5.32;;;;;;;15.95;100.00;98810.13;5090809;28;20073;-45
2023/11/13 04:52:43;;;;;;;6.65;4.13;;;;;;;15.81;100.00;98806.13;5092227;28;20524;-45
2023/11/13 04:55:10;;;;;;;38.17;35.28;;;;;;;15.83;100.00;98801.41;5090954;28;20031;-45
2023/11/13 04:57:36;;;;;;;9.82;5.43;;;;;;;16.00;100.00;98798.88;5092248;28;20016;-45
2023/11/13 05:00:05;;;;;;;7.75;5.68;;;;;;;15.85;100.00;98796.69;5090589;28;20028;-45
2023/11/13 05:02:31;;;;;;;9.75;4.65;;;;;;;15.46;100.00;98816.69;5090605;28;20513;-45
2023/11/13 05:04:56;;;;;;;46.95;42.92;;;;;;;15.06;100.00;98809.38;5092071;28;20040;-45
2023/11/13 05:07:22;;;;;;;10.00;5.15;;;;;;;14.82;100.00;98819.06;5090726;28;20077;-45
2023/11/13 05:09:48;;;;;;;11.38;5.18;;;;;;;14.60;100.00;98813.47;5091940;28;20031;-45
2023/11/13 05:12:15;;;;;;;302.40;269.75;;;;;;;14.35;100.00;98817.00;5091923;28;20054;-44
2023/11/13 05:14:41;;;;;;;127.88;116.10;;;;;;;14.60;100.00;98805.53;5091985;28;20538;-45
2023/11/13 05:17:08;;;;;;;15.02;10.80;;;;;;;15.14;100.00;98793.19;5090643;28;20103;-45
2023/11/13 05:19:33;;;;;;;15.95;7.85;;;;;;;15.57;100.00;98784.13;5091943;28;20490;-45
2023/11/13 05:21:59;;;;;;;9.63;5.80;;;;;;;15.72;100.00;98783.69;5090876;28;20020;-45
2023/11/13 05:24:26;;;;;;;10.57;8.77;;;;;;;15.67;100.00;98787.00;5090462;28;20395;-45
2023/11/13 05:26:53;;;;;;;6.25;4.70;;;;;;;15.61;100.00;98787.91;5091833;28;20513;-45
2023/11/13 05:29:19;;;;;;;8.32;5.00;;;;;;;15.38;100.00;98786.09;5091738;28;20028;-46
2023/11/13 05:31:45;;;;;;;7.20;5.72;;;;;;;15.37;100.00;98790.59;5091753;28;20029;-45
2023/11/13 05:34:11;;;;;;;8.15;3.90;;;;;;;15.44;100.00;98781.72;5090383;28;20024;-45
2023/11/13 05:36:37;;;;;;;15.32;8.73;;;;;;;15.05;100.00;98783.97;5091737;28;20020;-45
2023/11/13 05:39:05;;;;;;;10.32;5.35;;;;;;;14.75;100.00;98779.53;5090353;28;20031;-45
2023/11/13 05:41:32;;;;;;;5.53;3.35;;;;;;;14.30;100.00;98785.97;5091667;28;20417;-45
2023/11/13 05:43:58;;;;;;;5.30;2.28;;;;;;;14.00;100.00;98785.91;5091932;28;20394;-45
2023/11/13 05:46:24;;;;;;;5.90;3.00;;;;;;;13.75;100.00;98775.41;5090479;28;20099;-46
2023/11/13 05:48:50;;;;;;;6.72;3.28;;;;;;;13.43;100.00;98778.16;5091637;28;20115;-46
2023/11/13 05:51:18;;;;;;;5.32;2.95;;;;;;;13.26;100.00;98780.50;5091544;28;20551;-46
2023/11/13 05:53:44;;;;;;;6.97;3.83;;;;;;;13.11;100.00;98791.34;5091633;28;20051;-46
2023/11/13 05:56:10;;;;;;;4.90;2.72;;;;;;;13.03;100.00;98786.34;5091587;28;20062;-46
2023/11/13 05:58:36;;;;;;;6.95;4.13;;;;;;;12.97;100.00;98787.19;5091576;28;20055;-46
2023/11/13 06:01:02;;;;;;;6.18;3.85;;;;;;;12.92;100.00;98772.03;5090241;28;20032;-45
2023/11/13 06:03:28;;;;;;;7.90;2.90;;;;;;;12.82;100.00;98776.13;5091616;28;20054;-46
2023/11/13 06:05:54;;;;;;;6.28;2.67;;;;;;;12.68;100.00;98778.06;5091516;28;20487;-46
2023/11/13 06:08:20;;;;;;;9.70;3.10;;;;;;;12.69;100.00;98783.09;5091451;28;20036;-46
2023/11/13 06:10:46;;;;;;;6.05;2.72;;;;;;;12.69;100.00;98782.31;5090013;28;20028;-46
2023/11/13 06:13:12;;;;;;;7.25;6.20;;;;;;;12.69;100.00;98775.19;5094302;28;20490;-46
2023/11/13 06:15:40;;;;;;;8.80;2.50;;;;;;;12.93;100.00;98775.47;5095180;28;20020;-46
2023/11/13 06:18:07;;;;;;;10.05;2.10;;;;;;;12.90;100.00;98773.28;5093867;28;20395;-46
2023/11/13 06:20:36;;;;;;;13.48;8.55;;;;;;;13.02;100.00;98771.56;5094140;28;20028;-46
2023/11/13 06:23:02;;;;;;;7.35;2.25;;;;;;;13.49;100.00;98773.84;5095426;28;20035;-46
2023/11/13 06:25:28;;;;;;;6.18;3.78;;;;;;;13.96;100.00;98756.53;5093507;28;20067;-46
2023/11/13 06:27:56;;;;;;;7.25;3.33;;;;;;;14.04;100.00;98751.97;5095021;28;20483;-46
2023/11/13 06:30:23;;;;;;;3.70;2.25;;;;;;;13.59;100.00;98761.78;5094843;28;20102;-46
2023/11/13 06:32:49;;;;;;;3.58;1.55;;;;;;;13.36;100.00;98778.22;5076846;28;20046;-46
2023/11/13 06:35:16;;;;;;;7.75;5.15;;;;;;;13.70;100.00;98791.09;5093535;28;20485;-46
2023/11/13 06:37:41;;;;;;;9.07;3.95;;;;;;;14.27;100.00;98796.19;5076756;28;20052;-46
2023/11/13 06:40:08;;;;;;;6.30;2.10;;;;;;;14.53;100.00;98782.63;5094782;28;20040;-46
2023/11/13 06:42:34;;;;;;;5.40;2.25;;;;;;;14.24;100.00;98783.41;5093691;28;20056;-46
2023/11/13 06:45:00;;;;;;;3.17;2.13;;;;;;;13.95;100.00;98788.41;5093669;28;20617;-46
2023/11/13 06:47:26;;;;;;;4.88;2.10;;;;;;;13.63;100.00;98783.25;5093362;28;20028;-46
2023/11/13 06:49:51;;;;;;;6.97;2.47;;;;;;;13.66;100.00;98787.25;5093190;28;20028;-46
2023/11/13 06:52:17;;;;;;;5.93;1.85;;;;;;;14.24;100.00;98784.22;5094524;28;20034;-46
2023/11/13 06:54:44;;;;;;;6.47;4.13;;;;;;;15.05;100.00;98783.97;5094506;28;20085;-46
2023/11/13 06:57:10;;;;;;;5.60;2.85;;;;;;;15.33;100.00;98784.13;5093447;28;20036;-46
2023/11/13 06:59:36;;;;;;;4.82;1.50;;;;;;;15.44;100.00;98779.88;5094370;28;20062;-46
2023/11/13 07:02:02;;;;;;;6.75;2.22;;;;;;;15.93;100.00;98772.50;5093174;28;20028;-46
2023/11/13 07:04:28;;;;;;;9.25;4.10;;;;;;;15.97;100.00;98765.72;5092988;28;20078;-46
2023/11/13 07:06:54;;;;;;;6.18;3.88;;;;;;;15.91;100.00;98765.84;5094204;28;20017;-46
2023/11/13 07:09:20;;;;;;;9.52;3.47;;;;;;;15.80;100.00;98764.84;5094094;28;20051;-46
2023/11/13 07:11:48;;;;;;;4.63;3.25;;;;;;;15.53;100.00;98745.94;5094121;28;20058;-46
2023/11/13 07:14:15;;;;;;;3.45;2.10;;;;;;;14.93;100.00;98752.22;5094096;28;20428;-46
2023/11/13 07:16:41;;;;;;;6.13;2.00;;;;;;;14.54;100.00;98757.81;5092726;28;20016;-46
2023/11/13 07:19:07;;;;;;;6.03;2.00;;;;;;;14.72;100.00;98757.00;5094076;28;20043;-46
2023/11/13 07:21:35;;;;;;;2.58;1.83;;;;;;;14.80;100.00;98750.59;5093982;28;20024;-46
2023/11/13 07:24:12;;;;;;;5.65;2.00;;;;;;;14.92;100.00;98734.75;5093137;28;20040;-46
2023/11/13 07:26:38;;;;;;;4.30;2.00;;;;;;;15.24;100.00;98734.47;5093937;28;20032;-46
2023/11/13 07:29:03;;;;;;;5.30;3.67;;;;;;;15.73;100.00;98741.13;5093838;28;20055;-46
2023/11/13 07:31:29;;;;;;;5.28;2.00;;;;;;;15.95;100.00;98725.44;5093681;28;20103;-46
2023/11/13 07:33:55;;;;;;;3.90;1.85;;;;;;;16.20;100.00;98721.69;5093759;28;20020;-47
2023/11/13 07:36:23;;;;;;;6.05;2.45;;;;;;;16.34;100.00;98730.16;5092607;28;20032;-46
2023/11/13 07:38:49;;;;;;;4.20;2.90;;;;;;;16.42;100.00;98740.38;5093617;28;20103;-46
2023/11/13 07:41:16;;;;;;;6.35;2.38;;;;;;;16.40;100.00;98741.63;5092176;28;20507;-46
2023/11/13 07:43:43;;;;;;;4.97;2.10;;;;;;;16.47;100.00;98748.41;5093451;28;20111;-47
2023/11/13 07:46:09;;;;;;;3.58;2.22;;;;;;;16.43;100.00;98747.28;5093402;28;20023;-46
2023/11/13 07:48:36;;;;;;;4.00;1.67;;;;;;;16.49;100.00;98748.97;5092098;28;20024;-46
2023/11/13 07:51:06;;;;;;;4.95;2.00;;;;;;;16.05;100.00;98732.78;5093184;28;20024;-46
2023/11/13 07:53:33;;;;;;;5.32;1.98;;;;;;;15.66;100.00;98716.63;5093267;28;20020;-46
2023/11/13 07:56:00;;;;;;;7.50;2.60;;;;;;;15.67;100.00;98720.84;5093231;28;20113;-46
2023/11/13 07:58:26;;;;;;;6.32;3.15;;;;;;;16.44;100.00;98732.19;5093233;28;20012;-46
2023/11/13 08:00:53;;;;;;;13.27;4.70;;;;;;;17.32;100.00;98735.25;5093195;28;20028;-46
2023/11/13 08:03:26;;;;;;;9.05;3.28;;;;;;;17.89;100.00;98736.88;5093131;28;20494;-46
2023/11/13 08:05:52;;;;;;;9.65;8.02;;;;;;;17.86;100.00;98740.00;5093111;28;20027;-47
2023/11/13 08:08:18;;;;;;;5.25;2.70;;;;;;;17.84;100.00;98734.94;5093313;28;20024;-46
2023/11/13 08:10:47;;;;;;;4.47;2.15;;;;;;;17.88;100.00;98721.97;5092965;28;20024;-46
2023/11/13 08:13:18;;;;;;;8.07;3.40;;;;;;;18.17;100.00;98726.03;5092948;28;20031;-47
2023/11/13 08:15:44;;;;;;;8.93;6.82;;;;;;;18.51;100.00;98719.72;5092959;28;20024;-47
2023/11/13 08:18:14;;;;;;;8.13;2.78;;;;;;;18.95;100.00;98714.28;5092862;28;20521;-46
2023/11/13 08:20:44;;;;;;;5.85;2.55;;;;;;;19.26;100.00;98715.31;5092739;28;20028;-47
2023/11/13 08:23:10;;;;;;;15.13;3.95;;;;;;;19.43;100.00;98717.03;5091414;28;20024;-46
2023/11/13 08:25:38;;;;;;;8.82;2.90;;;;;;;19.47;100.00;98710.91;5092482;28;20059;-47
2023/11/13 08:28:04;;;;;;;4.43;2.92;;;;;;;19.59;100.00;98721.38;5091337;28;20032;-46
2023/11/13 08:30:30;;;;;;;5.80;2.30;;;;;;;19.56;100.00;98722.69;5092578;28;20020;-46
2023/11/13 08:32:56;;;;;;;7.40;2.78;;;;;;;19.65;100.00;98725.66;5092630;28;20024;-47
2023/11/13 08:35:22;;;;;;;6.80;2.22;;;;;;;19.52;100.00;98734.13;5090380;28;20066;-47
2023/11/13 08:37:48;;;;;;;16.38;14.90;;;;;;;19.32;100.00;98748.09;5092558;28;20462;-47
2023/11/13 08:40:17;;;;;;;9.65;3.47;;;;;;;19.36;100.00;98755.31;5092514;28;20028;-47
2023/11/13 08:42:46;;;;;;;7.63;2.40;;;;;;;19.56;100.00;98748.53;5092417;28;20024;-46
2023/11/13 08:45:15;;;;;;;8.68;1.92;;;;;;;19.50;100.00;98760.19;5092406;28;20027;-46
2023/11/13 08:47:42;;;;;;;28.98;26.25;;;;;;;19.28;100.00;98763.75;5092386;28;20103;-46
2023/11/13 08:50:09;;;;;;;13.35;3.80;;;;;;;19.82;100.00;98769.97;5092485;28;20036;-47
2023/11/13 08:52:35;;;;;;;5.35;2.50;;;;;;;20.66;100.00;98766.28;5091106;28;20016;-47
2023/11/13 08:55:03;;;;;;;6.80;2.90;;;;;;;21.54;100.00;98759.09;5090892;28;20114;-47
2023/11/13 08:57:29;;;;;;;8.30;2.75;;;;;;;22.06;100.00;98746.38;5092142;28;20024;-47
2023/11/13 08:59:55;;;;;;;6.72;2.55;;;;;;;22.05;100.00;98764.28;5090916;28;20497;-47
2023/11/13 09:02:25;;;;;;;5.30;2.25;;;;;;;21.46;100.00;98770.34;5092112;28;20024;-46
2023/11/13 09:04:52;;;;;;;5.47;2.65;;;;;;;20.97;100.00;98758.34;5090794;28;20486;-46
2023/11/13 09:07:18;;;;;;;7.60;4.03;;;;;;;20.69;100.00;98748.97;5073978;28;20024;-46
2023/11/13 09:09:43;;;;;;;16.60;4.70;;;;;;;20.41;100.00;98748.34;5091991;28;20439;-47
2023/11/13 09:12:12;;;;;;;16.67;5.90;;;;;;;20.13;100.00;98749.59;5090641;28;20512;-47
2023/11/13 09:14:39;;;;;;;22.90;8.45;;;;;;;19.77;100.00;98751.31;5091905;28;20023;-47
2023/11/13 09:17:12;;;;;;;14.90;9.90;;;;;;;19.48;100.00;98733.81;5090610;28;20054;-47
2023/11/13 09:19:40;;;;;;;4.05;2.10;;;;;;;19.69;100.00;98742.72;5091868;28;20077;-47
2023/11/13 09:22:12;;;;;;;13.52;3.25;;;;;;;19.68;100.00;98749.13;5090583;28;20016;-47
2023/11/13 09:24:41;;;;;;;8.27;3.25;;;;;;;19.49;100.00;98732.75;5091760;28;20066;-46
2023/11/13 09:27:11;;;;;;;6.95;2.50;;;;;;;19.67;100.00;98742.16;5092087;28;20036;-47
2023/11/13 09:29:46;;;;;;;14.10;4.13;;;;;;;19.74;100.00;98745.44;5090861;28;20035;-46
2023/11/13 09:32:14;;;;;;;15.00;7.38;;;;;;;19.62;100.00;98746.66;5091874;28;20213;-47
2023/11/13 09:34:42;;;;;;;17.65;7.53;;;;;;;19.71;100.00;98745.16;5091778;28;20081;-46
2023/11/13 09:37:08;;;;;;;12.40;3.50;;;;;;;19.88;100.00;98751.09;5091717;28;20024;-47
2023/11/13 09:39:42;;;;;;;11.18;3.58;;;;;;;19.83;100.00;98748.41;5091656;28;20127;-47
2023/11/13 09:42:16;;;;;;;14.57;2.87;;;;;;;19.93;100.00;98748.44;5091987;28;20031;-46
2023/11/13 09:44:45;;;;;;;6.05;2.03;;;;;;;19.95;100.00;98772.97;5091728;28;20478;-47
2023/11/13 09:47:15;;;;;;;6.72;2.72;;;;;;;19.66;100.00;98779.69;5091809;28;20073;-47
2023/11/13 09:49:45;;;;;;;7.38;2.90;;;;;;;19.45;100.00;98776.13;5095679;28;20032;-47
2023/11/13 09:52:14;;;;;;;33.28;21.42;;;;;;;19.38;100.00;98770.19;5095555;28;20086;-47
2023/11/13 09:54:42;;;;;;;12.40;6.15;;;;;;;19.38;100.00;98779.00;5095580;28;20153;-47
2023/11/13 09:57:13;;;;;;;10.85;4.25;;;;;;;19.25;99.24;98774.91;5094590;28;20089;-46
2023/11/13 09:59:40;;;;;;;8.80;3.58;;;;;;;19.22;100.00;98778.09;5095555;28;20027;-46
2023/11/13 10:02:10;;;;;;;13.35;3.90;;;;;;;19.08;100.00;98791.00;5095452;28;20054;-47
2023/11/13 10:04:36;;;;;;;8.13;2.85;;;;;;;19.06;100.00;98801.09;5094224;28;20026;-46
2023/11/13 10:07:04;;;;;;;13.65;3.80;;;;;;;19.05;100.00;98817.31;5095668;28;20499;-47
2023/11/13 10:09:30;;;;;;;6.78;2.42;;;;;;;19.28;100.00;98840.94;5095335;28;20024;-47
2023/11/13 10:12:02;;;;;;;3.97;2.20;;;;;;;19.44;99.32;98859.72;5095251;28;20020;-47
2023/11/13 10:14:29;;;;;;;12.00;3.00;;;;;;;19.07;98.98;98874.53;5095213;28;20025;-47
2023/11/13 10:17:03;;;;;;;11.35;4.28;;;;;;;18.61;100.00;98870.53;5093909;28;20055;-46
2023/11/13 10:19:29;;;;;;;15.77;3.13;;;;;;;18.08;100.00;98867.50;5093971;28;20119;-47
2023/11/13 10:21:57;;;;;;;5.95;2.67;;;;;;;17.21;100.00;98885.47;5095184;28;20020;-46
2023/11/13 10:24:24;;;;;;;19.75;13.23;;;;;;;16.76;100.00;98900.28;5094868;28;20134;-46
2023/11/13 10:26:50;;;;;;;29.30;13.60;;;;;;;16.47;100.00;98917.16;5095003;28;20100;-46
2023/11/13 10:29:30;;;;;;;32.05;13.15;;;;;;;16.55;100.00;98908.84;5095026;28;20052;-46
2023/11/13 10:31:56;;;;;;;110.88;47.88;;;;;;;16.46;100.00;98904.94;5094975;28;20049;-45
2023/11/13 10:34:22;;;;;;;54.97;34.35;;;;;;;16.18;100.00;98901.19;5094883;28;20031;-45
2023/11/13 10:37:11;;;;;;;268.27;118.45;;;;;;;16.01;100.00;98893.13;5094831;28;20090;-45
2023/11/13 10:39:46;;;;;;;30.15;16.95;;;;;;;15.97;100.00;98886.69;5093504;28;20036;-45
2023/11/13 10:42:26;;;;;;;13.80;9.93;;;;;;;15.52;100.00;98879.25;5094729;28;20123;-45
2023/11/13 10:44:54;;;;;;;14.00;8.55;;;;;;;15.05;100.00;98879.13;5094747;28;20046;-45
2023/11/13 10:47:30;;;;;;;12.65;8.57;;;;;;;14.73;100.00;98868.78;5094911;28;20428;-45
2023/11/13 10:49:58;;;;;;;5.75;4.45;;;;;;;14.52;100.00;98888.50;5094680;28;20020;-45
2023/11/13 10:52:27;;;;;;;8.23;5.10;;;;;;;14.37;100.00;98875.66;5094788;28;20016;-45
2023/11/13 10:54:58;;;;;;;7.70;4.60;;;;;;;14.34;100.00;98870.81;5093238;28;20020;-45
2023/11/13 10:57:25;;;;;;;20.08;17.98;;;;;;;14.38;100.00;98856.94;5094590;28;20032;-45
2023/11/13 10:59:53;;;;;;;5.30;3.72;;;;;;;14.42;100.00;98848.59;5093556;28;20028;-45
2023/11/13 11:02:29;;;;;;;13.00;5.43;;;;;;;14.68;100.00;98840.38;5094321;28;20059;-45
2023/11/13 11:04:59;;;;;;;8.45;4.07;;;;;;;15.18;100.00;98831.34;5094381;28;20032;-46
2023/11/13 11:07:26;;;;;;;20.65;11.02;;;;;;;15.38;100.00;98831.03;5092971;28;20035;-45
2023/11/13 11:10:01;;;;;;;17.52;5.47;;;;;;;15.51;100.00;98832.66;5094190;28;20024;-46
2023/11/13 11:12:43;;;;;;;4.37;1.90;;;;;;;15.38;100.00;98841.63;5093052;28;20016;-46
2023/11/13 11:15:23;;;;;;;7.05;3.03;;;;;;;15.35;100.00;98852.63;5094441;28;20348;-46
2023/11/13 11:17:57;;;;;;;14.20;10.45;;;;;;;15.40;100.00;98839.56;5092815;28;20081;-46
2023/11/13 11:20:37;;;;;;;75.97;68.10;;;;;;;15.44;100.00;98835.41;5094071;28;20122;-46